createdAt,value
2022-09-16T00:00:56.411Z,15.49
2022-09-16T00:03:25.923Z,15.37
2022-09-16T00:05:55.304Z,15.56
2022-09-16T00:08:23.064Z,15.45
2022-09-16T00:10:50.931Z,15.12
2022-09-16T00:13:19.002Z,14.90
2022-09-16T00:15:51.055Z,15.12
2022-09-16T00:18:19.605Z,15.07
2022-09-16T00:20:51.292Z,15.07
2022-09-16T00:23:19.890Z,15.33
2022-09-16T00:25:55.759Z,15.04
2022-09-16T00:28:24.443Z,15.00
2022-09-16T00:30:51.779Z,15.24
2022-09-16T00:33:20.210Z,15.31
2022-09-16T00:35:47.854Z,15.32
2022-09-16T00:38:15.175Z,15.33
2022-09-16T00:40:48.991Z,15.10
2022-09-16T00:43:19.055Z,15.14
2022-09-16T00:45:55.584Z,14.85
2022-09-16T00:48:26.474Z,15.11
2022-09-16T00:51:15.204Z,14.66
2022-09-16T00:53:50.090Z,15.02
2022-09-16T00:56:23.680Z,15.14
2022-09-16T00:59:02.218Z,14.88
2022-09-16T01:01:31.937Z,15.25
2022-09-16T01:04:14.530Z,15.18
2022-09-16T01:06:41.581Z,15.15
2022-09-16T01:09:08.799Z,14.92
2022-09-16T01:11:36.057Z,15.13
2022-09-16T01:14:22.893Z,15.13
2022-09-16T01:17:09.293Z,14.96
2022-09-16T01:20:08.278Z,15.10
2022-09-16T01:22:56.090Z,15.02
2022-09-16T01:25:54.087Z,14.74
2022-09-16T01:29:07.601Z,15.01
2022-09-16T01:31:54.409Z,15.08
2022-09-16T01:34:46.118Z,14.91
2022-09-16T01:37:24.151Z,14.36
2022-09-16T01:40:17.091Z,14.06
2022-09-16T01:43:25.504Z,14.28
2022-09-16T01:46:07.523Z,13.75
2022-09-16T01:48:56.457Z,14.25
2022-09-16T01:51:42.501Z,14.19
2022-09-16T01:54:29.867Z,14.12
2022-09-16T01:57:05.638Z,14.20
2022-09-16T01:59:54.698Z,14.35
2022-09-16T02:02:34.575Z,14.42
2022-09-16T02:05:08.527Z,14.38
2022-09-16T02:07:43.646Z,14.38
2022-09-16T02:10:25.953Z,14.17
2022-09-16T02:12:58.182Z,14.33
2022-09-16T02:15:26.542Z,13.98
2022-09-16T02:18:04.821Z,14.19
2022-09-16T02:20:38.388Z,14.13
2022-09-16T02:23:34.767Z,14.01
2022-09-16T02:26:05.711Z,13.71
2022-09-16T02:28:40.929Z,13.96
2022-09-16T02:31:10.390Z,13.73
2022-09-16T02:33:46.481Z,14.01
2022-09-16T02:36:20.253Z,13.83
2022-09-16T02:39:04.585Z,13.55
2022-09-16T02:41:31.753Z,13.57
2022-09-16T02:43:59.320Z,13.49
2022-09-16T02:46:27.120Z,13.63
2022-09-16T02:49:16.088Z,13.45
2022-09-16T02:52:14.554Z,13.82
2022-09-16T02:55:01.738Z,13.58
2022-09-16T02:57:29.764Z,13.74
2022-09-16T02:59:57.277Z,13.66
2022-09-16T03:02:24.515Z,13.82
2022-09-16T03:04:54.698Z,13.74
2022-09-16T03:07:21.835Z,13.82
2022-09-16T03:09:49.990Z,13.61
2022-09-16T03:12:47.339Z,13.58
2022-09-16T03:15:48.971Z,13.75
2022-09-16T03:18:29.303Z,13.49
2022-09-16T03:21:32.512Z,13.71
2022-09-16T03:24:28.057Z,13.39
2022-09-16T03:27:13.576Z,13.75
2022-09-16T03:30:11.482Z,13.31
2022-09-16T03:32:40.257Z,13.62
2022-09-16T03:35:29.814Z,13.39
2022-09-16T03:38:00.495Z,13.17
2022-09-16T03:40:30.089Z,13.51
2022-09-16T03:42:58.433Z,13.73
2022-09-16T03:45:25.857Z,13.77
2022-09-16T03:47:54.035Z,13.75
2022-09-16T03:50:22.202Z,13.57
2022-09-16T03:52:49.211Z,13.48
2022-09-16T03:55:17.356Z,13.14
2022-09-16T03:57:44.407Z,13.40
2022-09-16T04:00:12.674Z,13.28
2022-09-16T04:02:42.998Z,12.82
2022-09-16T04:05:10.248Z,13.03
2022-09-16T04:07:37.519Z,13.35
2022-09-16T04:10:08.994Z,13.21
2022-09-16T04:12:36.117Z,13.20
2022-09-16T04:15:05.565Z,13.55
2022-09-16T04:17:33.371Z,13.07
2022-09-16T04:20:00.988Z,13.26
2022-09-16T04:22:32.054Z,13.39
2022-09-16T04:24:59.502Z,13.34
2022-09-16T04:27:26.808Z,13.51
2022-09-16T04:29:53.901Z,13.63
2022-09-16T04:32:23.678Z,12.89
2022-09-16T04:34:50.705Z,13.24
2022-09-16T04:37:17.731Z,13.19
2022-09-16T04:39:53.375Z,13.24
2022-09-16T04:42:20.539Z,13.27
2022-09-16T04:44:49.825Z,13.38
2022-09-16T04:47:16.924Z,13.49
2022-09-16T04:49:43.946Z,13.71
2022-09-16T04:52:11.150Z,13.88
2022-09-16T04:54:38.186Z,14.15
2022-09-16T04:57:05.231Z,13.67
2022-09-16T04:59:35.180Z,13.99
2022-09-16T05:02:02.236Z,13.63
2022-09-16T05:04:29.343Z,13.72
2022-09-16T05:06:56.543Z,13.51
2022-09-16T05:09:26.091Z,13.77
2022-09-16T05:11:53.778Z,13.78
2022-09-16T05:14:21.122Z,13.81
2022-09-16T05:16:48.099Z,13.94
2022-09-16T05:19:16.190Z,13.67
2022-09-16T05:21:43.773Z,13.28
2022-09-16T05:24:13.635Z,13.85
2022-09-16T05:26:45.210Z,14.03
2022-09-16T05:29:16.135Z,13.89
2022-09-16T05:31:47.471Z,14.19
2022-09-16T05:34:23.396Z,14.46
2022-09-16T05:36:54.235Z,14.57
2022-09-16T05:39:24.076Z,14.28
2022-09-16T05:41:57.834Z,14.23
2022-09-16T05:44:29.177Z,14.48
2022-09-16T05:46:56.586Z,14.29
2022-09-16T05:49:24.168Z,14.52
2022-09-16T05:51:57.146Z,14.62
2022-09-16T05:54:25.360Z,14.20
2022-09-16T05:56:52.729Z,14.55
2022-09-16T05:59:24.805Z,14.43
2022-09-16T06:01:51.881Z,14.70
2022-09-16T06:04:19.042Z,14.55
2022-09-16T06:06:49.609Z,14.52
2022-09-16T06:09:21.776Z,15.08
2022-09-16T06:11:55.398Z,15.36
2022-09-16T06:14:25.174Z,15.36
2022-09-16T06:16:52.252Z,15.25
2022-09-16T06:19:20.492Z,15.28
2022-09-16T06:21:50.313Z,16.09
2022-09-16T06:24:19.848Z,16.70
2022-09-16T06:26:48.583Z,17.93
2022-09-16T06:29:19.250Z,18.16
2022-09-16T06:31:48.418Z,19.07
2022-09-16T06:34:18.786Z,19.27
2022-09-16T06:36:46.297Z,19.86
2022-09-16T06:39:15.921Z,19.79
2022-09-16T06:41:43.742Z,19.16
2022-09-16T06:44:11.134Z,19.98
2022-09-16T06:46:40.395Z,20.43
2022-09-16T06:49:07.649Z,19.34
2022-09-16T06:51:37.205Z,19.46
2022-09-16T06:54:07.296Z,21.07
2022-09-16T06:56:37.766Z,20.69
2022-09-16T06:59:06.568Z,21.16
2022-09-16T07:01:36.199Z,20.26
2022-09-16T07:04:08.399Z,19.14
2022-09-16T07:09:24.517Z,18.04
2022-09-16T07:11:51.520Z,18.23
2022-09-16T07:14:18.742Z,18.61
2022-09-16T07:16:45.825Z,18.64
2022-09-16T07:19:12.878Z,18.20
2022-09-16T07:21:41.404Z,18.46
2022-09-16T07:24:14.065Z,19.42
2022-09-16T07:26:45.163Z,19.87
2022-09-16T07:29:15.839Z,20.38
2022-09-16T07:31:43.205Z,20.76
2022-09-16T07:34:12.272Z,21.07
2022-09-16T07:36:47.416Z,21.66
2022-09-16T07:39:19.412Z,22.09
2022-09-16T07:41:49.259Z,22.04
2022-09-16T07:44:19.106Z,22.46
2022-09-16T07:46:51.245Z,22.92
2022-09-16T07:49:19.201Z,22.73
2022-09-16T07:51:46.207Z,22.01
2022-09-16T07:54:16.360Z,22.98
2022-09-16T07:56:48.505Z,23.09
2022-09-16T07:59:19.612Z,23.86
2022-09-16T08:01:50.554Z,23.77
2022-09-16T08:04:20.203Z,23.51
2022-09-16T08:06:47.340Z,22.98
2022-09-16T08:12:05.151Z,23.06
2022-09-16T08:14:33.298Z,23.75
2022-09-16T08:17:02.071Z,24.38
2022-09-16T08:19:30.132Z,23.91
2022-09-16T08:21:57.312Z,24.55
2022-09-16T08:24:24.402Z,24.39
2022-09-16T08:29:25.824Z,25.42
2022-09-16T08:31:55.478Z,25.90
2022-09-16T08:34:22.647Z,24.96
2022-09-16T08:36:49.649Z,25.50
2022-09-16T08:39:16.646Z,24.92
2022-09-16T08:42:25.458Z,24.75
2022-09-16T08:45:15.207Z,25.05
2022-09-16T08:48:10.490Z,25.01
2022-09-16T08:50:45.114Z,24.18
2022-09-16T08:53:58.568Z,25.28
2022-09-16T08:56:30.504Z,25.79
2022-09-16T08:59:01.508Z,26.99
2022-09-16T09:01:36.774Z,25.58
2022-09-16T09:04:04.820Z,23.70
2022-09-16T09:06:56.340Z,23.39
2022-09-16T09:09:53.795Z,21.13
2022-09-16T09:13:03.685Z,20.35
2022-09-16T09:16:15.076Z,21.14
2022-09-16T09:19:39.103Z,21.31
2022-09-16T09:22:56.947Z,23.30
2022-09-16T09:25:58.618Z,22.22
2022-09-16T09:28:46.215Z,21.69
2022-09-16T09:31:31.538Z,22.10
2022-09-16T09:34:41.752Z,23.25
2022-09-16T09:37:51.303Z,23.31
2022-09-16T09:40:48.219Z,21.67
2022-09-16T09:43:17.111Z,21.48
2022-09-16T09:46:13.057Z,21.19
2022-09-16T09:49:24.930Z,21.25
2022-09-16T09:52:08.200Z,21.67
2022-09-16T09:54:37.872Z,20.75
2022-09-16T09:57:32.069Z,20.84
2022-09-16T10:00:11.829Z,22.14
2022-09-16T10:02:46.236Z,21.26
2022-09-16T10:05:31.327Z,21.61
2022-09-16T10:08:30.282Z,22.02
2022-09-16T10:11:03.727Z,22.30
2022-09-16T10:13:31.476Z,21.19
2022-09-16T10:16:14.872Z,22.87
2022-09-16T10:18:42.440Z,23.57
2022-09-16T10:21:16.699Z,24.55
2022-09-16T10:23:56.582Z,23.77
2022-09-16T10:26:27.645Z,24.24
2022-09-16T10:29:03.143Z,23.77
2022-09-16T10:31:37.816Z,23.77
2022-09-16T10:34:31.835Z,22.91
2022-09-16T10:37:06.215Z,23.43
2022-09-16T10:39:34.223Z,23.10
2022-09-16T10:42:03.270Z,23.15
2022-09-16T10:44:36.485Z,22.75
2022-09-16T10:47:26.638Z,22.27
2022-09-16T10:50:06.834Z,22.59
2022-09-16T10:52:46.212Z,23.37
2022-09-16T10:55:38.809Z,22.96
2022-09-16T10:58:16.691Z,22.20
2022-09-16T11:01:07.860Z,22.60
2022-09-16T11:04:00.627Z,23.57
2022-09-16T11:07:02.001Z,23.38
2022-09-16T11:09:56.639Z,23.66
2022-09-16T11:12:56.854Z,23.73
2022-09-16T11:16:05.388Z,23.22
2022-09-16T11:18:50.770Z,22.33
2022-09-16T11:22:03.906Z,23.05
2022-09-16T11:24:56.577Z,23.23
2022-09-16T11:27:57.096Z,23.73
2022-09-16T11:30:25.578Z,22.62
2022-09-16T11:33:36.826Z,23.78
2022-09-16T11:36:24.656Z,24.03
2022-09-16T11:39:41.571Z,25.44
2022-09-16T11:42:43.466Z,25.14
2022-09-16T11:45:43.135Z,23.52
2022-09-16T11:48:38.444Z,24.90
2022-09-16T11:51:38.364Z,24.85
2022-09-16T11:57:04.913Z,23.46
2022-09-16T11:59:50.631Z,23.71
2022-09-16T12:02:25.534Z,24.13
2022-09-16T12:05:13.799Z,24.69
2022-09-16T12:07:50.715Z,23.96
2022-09-16T12:10:47.591Z,24.33
2022-09-16T12:13:39.076Z,24.68
2022-09-16T12:16:13.830Z,24.83
2022-09-16T12:18:51.677Z,24.49
2022-09-16T12:21:47.275Z,25.06
2022-09-16T12:24:55.856Z,24.21
2022-09-16T12:27:37.308Z,24.48
2022-09-16T12:30:20.740Z,23.97
2022-09-16T12:33:41.569Z,23.77
2022-09-16T12:36:14.381Z,23.90
2022-09-16T12:38:41.766Z,24.21
2022-09-16T12:41:57.571Z,24.47
2022-09-16T12:44:58.093Z,22.86
2022-09-16T12:48:17.784Z,22.18
2022-09-16T12:51:12.566Z,21.56
2022-09-16T12:54:06.579Z,22.35
2022-09-16T12:57:12.646Z,23.27
2022-09-16T13:00:07.078Z,24.04
2022-09-16T13:02:46.549Z,24.01
2022-09-16T13:05:34.010Z,23.92
2022-09-16T13:08:07.925Z,24.00
2022-09-16T13:10:55.024Z,23.27
2022-09-16T13:13:52.825Z,22.99
2022-09-16T13:16:36.361Z,23.03
2022-09-16T13:19:44.760Z,21.84
2022-09-16T13:22:29.523Z,22.26
2022-09-16T13:25:20.141Z,22.18
2022-09-16T13:28:01.887Z,22.90
2022-09-16T13:30:31.952Z,23.51
2022-09-16T13:33:29.277Z,23.52
2022-09-16T13:36:26.091Z,23.19
2022-09-16T13:39:02.059Z,23.53
2022-09-16T13:41:47.483Z,23.56
2022-09-16T13:44:40.033Z,24.41
2022-09-16T13:47:30.615Z,23.98
2022-09-16T13:50:13.142Z,22.86
2022-09-16T13:52:40.593Z,23.39
2022-09-16T13:55:24.940Z,23.76
2022-09-16T13:58:26.459Z,23.34
2022-09-16T14:01:36.943Z,22.38
2022-09-16T14:04:37.464Z,21.72
2022-09-16T14:08:11.902Z,21.67
2022-09-16T14:11:16.682Z,21.61
2022-09-16T14:14:15.652Z,21.07
2022-09-16T14:16:53.075Z,21.07
2022-09-16T14:19:37.315Z,20.66
2022-09-16T14:22:16.402Z,20.93
2022-09-16T14:24:45.498Z,21.38
2022-09-16T14:27:26.542Z,21.41
2022-09-16T14:30:02.303Z,20.87
2022-09-16T14:32:35.918Z,20.73
2022-09-16T14:35:11.312Z,20.34
2022-09-16T14:37:39.955Z,20.61
2022-09-16T14:40:14.347Z,20.81
2022-09-16T14:43:03.452Z,20.91
2022-09-16T14:45:32.703Z,21.15
2022-09-16T14:48:05.437Z,21.08
2022-09-16T14:50:38.792Z,20.13
2022-09-16T14:53:26.846Z,20.27
2022-09-16T14:56:00.784Z,21.05
2022-09-16T14:58:31.200Z,21.81
2022-09-16T15:01:16.107Z,21.65
2022-09-16T15:03:48.091Z,22.34
2022-09-16T15:06:27.370Z,23.23
2022-09-16T15:09:02.631Z,22.24
2022-09-16T15:11:47.653Z,22.22
2022-09-16T15:14:16.586Z,21.68
2022-09-16T15:16:53.346Z,21.38
2022-09-16T15:19:28.659Z,20.89
2022-09-16T15:21:59.341Z,20.16
2022-09-16T15:24:40.505Z,19.70
2022-09-16T15:27:07.859Z,19.61
2022-09-16T15:29:49.452Z,19.64
2022-09-16T15:32:23.465Z,19.29
2022-09-16T15:35:11.798Z,19.65
2022-09-16T15:37:40.909Z,19.37
2022-09-16T15:40:32.778Z,19.60
2022-09-16T15:43:18.643Z,19.17
2022-09-16T15:46:03.132Z,19.27
2022-09-16T15:48:43.087Z,19.17
2022-09-16T15:51:34.003Z,19.27
2022-09-16T15:54:19.520Z,18.86
2022-09-16T15:57:23.023Z,19.35
2022-09-16T16:00:13.191Z,19.26
2022-09-16T16:02:56.650Z,19.08
2022-09-16T16:05:31.247Z,19.04
2022-09-16T16:08:08.928Z,19.16
2022-09-16T16:10:39.140Z,18.71
2022-09-16T16:13:06.193Z,18.94
2022-09-16T16:15:40.005Z,19.06
2022-09-16T16:18:10.678Z,19.07
2022-09-16T16:20:39.931Z,18.92
2022-09-16T16:23:07.181Z,19.13
2022-09-16T16:25:34.238Z,19.00
2022-09-16T16:28:04.413Z,18.87
2022-09-16T16:30:31.482Z,18.86
2022-09-16T16:33:00.547Z,18.93
2022-09-16T16:35:32.036Z,18.86
2022-09-16T16:38:01.547Z,18.55
2022-09-16T16:40:28.570Z,18.48
2022-09-16T16:42:55.564Z,18.63
2022-09-16T16:45:22.862Z,18.49
2022-09-16T16:47:53.281Z,18.58
2022-09-16T16:50:23.281Z,18.43
2022-09-16T16:52:53.173Z,18.77
2022-09-16T16:55:20.293Z,18.63
2022-09-16T16:57:48.315Z,18.50
2022-09-16T17:00:16.438Z,18.13
2022-09-16T17:02:44.015Z,18.32
2022-09-16T17:05:11.402Z,18.23
2022-09-16T17:07:38.500Z,18.34
2022-09-16T17:10:06.275Z,18.32
2022-09-16T17:12:33.380Z,17.69
2022-09-16T17:15:00.816Z,17.80
2022-09-16T17:17:31.624Z,17.69
2022-09-16T17:20:01.755Z,17.97
2022-09-16T17:22:28.795Z,17.95
2022-09-16T17:24:55.829Z,17.70
2022-09-16T17:27:24.777Z,17.69
2022-09-16T17:29:51.785Z,17.52
2022-09-16T17:32:19.135Z,17.60
2022-09-16T17:34:46.151Z,17.91
2022-09-16T17:37:15.236Z,17.89
2022-09-16T17:39:42.558Z,17.92
2022-09-16T17:42:09.523Z,18.12
2022-09-16T17:44:36.706Z,18.38
2022-09-16T17:47:03.796Z,18.37
2022-09-16T17:49:31.192Z,17.95
2022-09-16T17:51:59.008Z,17.91
2022-09-16T17:54:26.031Z,17.73
2022-09-16T17:56:53.112Z,18.21
2022-09-16T17:59:20.502Z,18.45
2022-09-16T18:01:47.724Z,18.38
2022-09-16T18:04:17.733Z,18.28
2022-09-16T18:06:46.888Z,18.31
2022-09-16T18:09:16.270Z,18.38
2022-09-16T18:11:43.446Z,18.05
2022-09-16T18:14:13.311Z,18.04
2022-09-16T18:16:41.419Z,17.97
2022-09-16T18:19:09.335Z,17.96
2022-09-16T18:21:38.145Z,17.88
2022-09-16T18:24:11.342Z,17.67
2022-09-16T18:26:40.762Z,17.76
2022-09-16T18:29:10.412Z,17.83
2022-09-16T18:31:48.149Z,17.80
2022-09-16T18:34:18.682Z,17.54
2022-09-16T18:36:45.791Z,17.60
2022-09-16T18:39:16.618Z,17.26
2022-09-16T18:41:45.994Z,17.45
2022-09-16T18:44:14.665Z,17.71
2022-09-16T18:46:44.456Z,17.73
2022-09-16T18:49:14.281Z,17.55
2022-09-16T18:51:50.479Z,17.15
2022-09-16T18:54:29.063Z,17.35
2022-09-16T18:57:01.314Z,17.24
2022-09-16T18:59:31.288Z,17.03
2022-09-16T19:02:01.502Z,17.18
2022-09-16T19:04:37.192Z,16.96
2022-09-16T19:07:08.248Z,17.07
2022-09-16T19:09:40.237Z,17.69
2022-09-16T19:12:13.319Z,17.10
2022-09-16T19:14:41.059Z,16.75
2022-09-16T19:17:08.331Z,16.78
2022-09-16T19:19:35.521Z,17.00
2022-09-16T19:22:05.858Z,16.77
2022-09-16T19:24:34.141Z,16.71
2022-09-16T19:27:03.489Z,16.93
2022-09-16T19:29:32.581Z,17.21
2022-09-16T19:31:59.738Z,16.76
2022-09-16T19:34:26.908Z,17.02
2022-09-16T19:36:56.471Z,17.16
2022-09-16T19:39:24.051Z,16.72
2022-09-16T19:41:51.050Z,16.42
2022-09-16T19:44:19.027Z,16.87
2022-09-16T19:46:49.239Z,16.96
2022-09-16T19:49:22.929Z,16.85
2022-09-16T19:51:52.848Z,16.49
2022-09-16T19:54:20.534Z,16.40
2022-09-16T19:56:50.682Z,16.63
2022-09-16T19:59:19.303Z,16.29
2022-09-16T20:01:49.436Z,16.70
2022-09-16T20:04:20.000Z,16.45
2022-09-16T20:06:47.702Z,16.38
2022-09-16T20:09:14.986Z,16.55
2022-09-16T20:11:45.018Z,16.28
2022-09-16T20:14:16.894Z,16.31
2022-09-16T20:16:43.977Z,16.14
2022-09-16T20:19:14.424Z,15.95
2022-09-16T20:21:42.416Z,16.24
2022-09-16T20:24:18.436Z,16.11
2022-09-16T20:26:47.647Z,16.17
2022-09-16T20:29:17.263Z,16.24
2022-09-16T20:31:45.432Z,15.92
2022-09-16T20:34:16.448Z,15.91
2022-09-16T20:36:45.572Z,15.37
2022-09-16T20:39:14.363Z,15.36
2022-09-16T20:41:42.645Z,15.48
2022-09-16T20:44:15.714Z,15.62
2022-09-16T20:46:43.118Z,15.57
2022-09-16T20:49:15.986Z,15.51
2022-09-16T20:51:43.443Z,15.49
2022-09-16T20:54:18.917Z,15.58
2022-09-16T20:56:48.322Z,15.51
2022-09-16T20:59:20.324Z,15.43
2022-09-16T21:01:48.633Z,15.41
2022-09-16T21:04:19.758Z,15.23
2022-09-16T21:06:50.068Z,15.05
2022-09-16T21:09:19.317Z,15.07
2022-09-16T21:11:47.128Z,15.14
2022-09-16T21:14:18.094Z,15.00
2022-09-16T21:16:51.670Z,15.08
2022-09-16T21:19:19.086Z,14.82
2022-09-16T21:21:49.371Z,14.87
2022-09-16T21:24:17.247Z,14.87
2022-09-16T21:26:45.452Z,15.03
2022-09-16T21:29:17.611Z,15.27
2022-09-16T21:31:48.710Z,14.75
2022-09-16T21:34:21.091Z,15.00
2022-09-16T21:36:51.297Z,15.00
2022-09-16T21:39:20.427Z,15.02
2022-09-16T21:41:48.689Z,14.89
2022-09-16T21:44:16.655Z,14.63
2022-09-16T21:46:46.826Z,14.83
2022-09-16T21:49:25.355Z,14.57
2022-09-16T21:51:55.555Z,14.91
2022-09-16T21:54:23.543Z,14.88
2022-09-16T21:56:52.070Z,14.45
2022-09-16T21:59:20.277Z,14.72
2022-09-16T22:01:50.058Z,14.56
2022-09-16T22:04:21.518Z,14.74
2022-09-16T22:06:50.381Z,14.69
2022-09-16T22:09:17.863Z,14.73
2022-09-16T22:11:47.501Z,14.91
2022-09-16T22:14:15.905Z,14.78
2022-09-16T22:16:45.361Z,14.96
2022-09-16T22:19:18.970Z,14.74
2022-09-16T22:21:49.795Z,14.90
2022-09-16T22:24:22.566Z,14.59
2022-09-16T22:26:55.274Z,15.28
2022-09-16T22:29:25.350Z,15.03
2022-09-16T22:31:55.037Z,15.35
2022-09-16T22:34:24.397Z,15.31
2022-09-16T22:36:51.587Z,15.10
2022-09-16T22:39:20.015Z,15.56
2022-09-16T22:41:52.253Z,15.52
2022-09-16T22:44:21.618Z,15.71
2022-09-16T22:46:51.207Z,15.50
2022-09-16T22:49:18.323Z,15.42
2022-09-16T22:51:45.465Z,15.83
2022-09-16T22:54:14.235Z,15.84
2022-09-16T22:56:46.518Z,15.77
2022-09-16T22:59:19.235Z,15.92
2022-09-16T23:01:47.097Z,15.56
2022-09-16T23:04:14.849Z,15.67
2022-09-16T23:06:43.347Z,15.77
2022-09-16T23:09:15.806Z,15.85
2022-09-16T23:11:45.589Z,15.85
2022-09-16T23:14:20.856Z,15.49
2022-09-16T23:16:48.183Z,15.97
2022-09-16T23:19:15.293Z,15.51
2022-09-16T23:21:42.690Z,15.47
2022-09-16T23:24:21.289Z,15.35
2022-09-16T23:26:49.192Z,15.44
2022-09-16T23:29:18.242Z,15.64
2022-09-16T23:31:45.731Z,15.31
2022-09-16T23:34:24.059Z,15.17
2022-09-16T23:36:53.574Z,15.29
2022-09-16T23:39:20.731Z,14.84
2022-09-16T23:41:48.876Z,15.01
2022-09-16T23:44:19.228Z,14.82
2022-09-16T23:46:46.609Z,15.06
2022-09-16T23:49:16.965Z,14.91
2022-09-16T23:51:44.127Z,14.71
2022-09-16T23:54:11.152Z,14.50
2022-09-16T23:56:38.159Z,14.33
2022-09-16T23:59:05.180Z,14.32
